Terminal Aerodrome Forecast
Issued by NWS

Home | Current Version | Previous Version | Text Only | Print | Product List | Glossary On
Versions: 1 2 3 4 5 6 7 8 9 10 11 12 13 14 15 16 17 18 19 20 21 22 23 24 25 26 27 28 29 30 31 32 33 34 35 36 37 38 39 40 41 42 43 44 45 46 47 48 49 50
000
FTUS42 KTBW 162335
TAFRSW
TAF
KRSW 162335Z 1700/1724 VRB03KT P6SM BKN070
     FM171800 16005KT P6SM VCTS FEW050CB SCT100
     FM172000 21006KT P6SM VCTS SCT050CB BKN090
     FM172300 33004KT P6SM VCTS FEW050CB SCT150=

USA.gov is the U.S. government's official web portal to all federal, state and local government web resources and services.